Terminal Aerodrome Forecast
Issued by NWS Northern Indiana

Home | Current Version | Previous Version | Graphics & Text | Print | Product List | Glossary On
Versions: 1 2 3 4 5 6 7 8 9 10 11 12 13 14 15 16 17 18
000
FTUS43 KIWX 092321
TAFFWA
TAF
KFWA 092321Z 1000/1024 34011KT P6SM OVC025
     FM101000 24007KT P6SM BKN100
     FM101500 23013KT P6SM BKN060=

USA.gov is the U.S. government's official web portal to all federal, state and local government web resources and services.